Дата Пункты Температура Давл., мм. Влажн., % Ветер Погодные явления
Воздуха Воды Направл. Скорость
25.09.14 02:00 Одесса 6.0 18.0 759 73 З 2 03 часа
24.09.14 08:00 Одесса 9.0 18.0 758 56 Пн-З 2 21 час
24.09.14 05:00 Одесса 12.0 18.0 757 48 Пн-З 4 18 часов
24.09.14 02:00 Одесса 14.0 18.0 756 51 Пн-З 4 15 часов
24.09.14 11:00 Одесса 13.0 19.0 755 59 З 6 12 часов
24.09.14 08:00 Одесса 11.0 19.0 753 74 З 3 09 часов
24.09.14 05:00 Одесса 11.0 19.0 751 83 З 3 06 часов
24.09.14 02:00 Одесса 11.0 19.0 750 83 З 4 03 часа
23.09.14 08:00 Одесса 13.0 19.0 748 94 Пн-З 2 21 час
23.09.14 05:00 Одесса 16.0 19.0 747 66 Пн-З 3 18 часов
23.09.14 02:00 Одесса 17.0 19.0 748 72 Пн-З 3 15 часов
23.09.14 11:00 Одесса 17.0 20.0 748 75 Пн-З 3 12 часов
23.09.14 08:00 Одесса 14.0 20.0 747 90 Пн-З 3 09 часов
23.09.14 05:00 Одесса 18.0 20.0 746 97 Пд-С 3 06 часов
23.09.14 02:00 Одесса 16.0 20.0 747 99 Пн 6 03 часа
22.09.14 08:00 Одесса 18.0 20.0 750 97 Пд-С 5 21 час
22.09.14 05:00 Одесса 19.0 20.0 751 96 Пд 3 18 часов
22.09.14 02:00 Одесса 20.0 20.0 752 91 Пд-С 5 15 часов
22.09.14 11:00 Одесса 18.0 20.0 753 98 Пд 1 12 часов
22.09.14 08:00 Одесса 19.0 20.0 753 92 Пд-С 7 09 часов
Количество строк
541 542 543 544 545 546 547 548 549 550
Page 549 of 553